sensor_id;sensor_type;location;lat;lon;timestamp;P1;durP1;ratioP1;P2;durP2;ratioP2
33644;SDS011;19986;48.190;16.366;2024-01-07T00:00:36;51.92;;;49.13;;
33644;SDS011;19986;48.190;16.366;2024-01-07T00:03:03;52.72;;;49.88;;
33644;SDS011;19986;48.190;16.366;2024-01-07T00:05:29;54.33;;;51.42;;
33644;SDS011;19986;48.190;16.366;2024-01-07T00:08:00;52.72;;;49.92;;
33644;SDS011;19986;48.190;16.366;2024-01-07T00:10:29;52.15;;;49.25;;
33644;SDS011;19986;48.190;16.366;2024-01-07T00:12:55;51.67;;;48.95;;
33644;SDS011;19986;48.190;16.366;2024-01-07T00:15:21;52.85;;;50.13;;
33644;SDS011;19986;48.190;16.366;2024-01-07T00:17:47;51.10;;;48.40;;
33644;SDS011;19986;48.190;16.366;2024-01-07T00:20:13;51.58;;;48.83;;
33644;SDS011;19986;48.190;16.366;2024-01-07T00:22:39;51.78;;;49.08;;
33644;SDS011;19986;48.190;16.366;2024-01-07T00:25:06;51.03;;;48.35;;
33644;SDS011;19986;48.190;16.366;2024-01-07T00:27:33;52.65;;;49.95;;
33644;SDS011;19986;48.190;16.366;2024-01-07T00:30:00;53.72;;;50.97;;
33644;SDS011;19986;48.190;16.366;2024-01-07T00:32:26;49.08;;;46.38;;
33644;SDS011;19986;48.190;16.366;2024-01-07T00:34:52;51.25;;;48.65;;
33644;SDS011;19986;48.190;16.366;2024-01-07T00:37:18;52.17;;;49.38;;
33644;SDS011;19986;48.190;16.366;2024-01-07T00:39:44;49.72;;;47.20;;
33644;SDS011;19986;48.190;16.366;2024-01-07T00:42:11;51.17;;;48.47;;
33644;SDS011;19986;48.190;16.366;2024-01-07T00:44:37;52.50;;;49.78;;
33644;SDS011;19986;48.190;16.366;2024-01-07T00:47:03;51.58;;;48.88;;
33644;SDS011;19986;48.190;16.366;2024-01-07T00:49:29;51.58;;;48.88;;
33644;SDS011;19986;48.190;16.366;2024-01-07T00:51:55;52.25;;;49.53;;
33644;SDS011;19986;48.190;16.366;2024-01-07T00:54:21;51.60;;;48.90;;
33644;SDS011;19986;48.190;16.366;2024-01-07T00:56:47;49.72;;;47.15;;
33644;SDS011;19986;48.190;16.366;2024-01-07T00:59:15;49.40;;;46.83;;
33644;SDS011;19986;48.190;16.366;2024-01-07T01:01:47;51.20;;;48.60;;
33644;SDS011;19986;48.190;16.366;2024-01-07T01:04:13;51.08;;;48.30;;
33644;SDS011;19986;48.190;16.366;2024-01-07T01:06:39;52.60;;;49.83;;
33644;SDS011;19986;48.190;16.366;2024-01-07T01:09:05;52.28;;;49.58;;
33644;SDS011;19986;48.190;16.366;2024-01-07T01:11:33;49.88;;;47.20;;
33644;SDS011;19986;48.190;16.366;2024-01-07T01:13:59;51.85;;;49.25;;
33644;SDS011;19986;48.190;16.366;2024-01-07T01:16:25;48.72;;;46.08;;
33644;SDS011;19986;48.190;16.366;2024-01-07T01:18:51;50.22;;;47.63;;
33644;SDS011;19986;48.190;16.366;2024-01-07T01:21:17;48.97;;;46.55;;
33644;SDS011;19986;48.190;16.366;2024-01-07T01:23:46;49.05;;;46.55;;
33644;SDS011;19986;48.190;16.366;2024-01-07T01:26:12;51.10;;;48.60;;
33644;SDS011;19986;48.190;16.366;2024-01-07T01:28:38;51.78;;;49.08;;
33644;SDS011;19986;48.190;16.366;2024-01-07T01:31:04;52.22;;;49.53;;
33644;SDS011;19986;48.190;16.366;2024-01-07T01:33:31;49.63;;;47.03;;
33644;SDS011;19986;48.190;16.366;2024-01-07T01:35:58;50.30;;;47.75;;
33644;SDS011;19986;48.190;16.366;2024-01-07T01:38:29;50.97;;;48.25;;
33644;SDS011;19986;48.190;16.366;2024-01-07T01:40:55;48.70;;;46.10;;
33644;SDS011;19986;48.190;16.366;2024-01-07T01:43:22;50.35;;;47.70;;
33644;SDS011;19986;48.190;16.366;2024-01-07T01:45:53;50.85;;;48.25;;
33644;SDS011;19986;48.190;16.366;2024-01-07T01:48:21;48.15;;;45.65;;
33644;SDS011;19986;48.190;16.366;2024-01-07T01:50:48;50.70;;;48.15;;
33644;SDS011;19986;48.190;16.366;2024-01-07T01:53:15;49.65;;;47.05;;
33644;SDS011;19986;48.190;16.366;2024-01-07T01:55:45;49.88;;;47.25;;
33644;SDS011;19986;48.190;16.366;2024-01-07T01:58:11;52.20;;;49.42;;
33644;SDS011;19986;48.190;16.366;2024-01-07T02:00:39;49.92;;;47.42;;
33644;SDS011;19986;48.190;16.366;2024-01-07T02:03:06;52.35;;;49.58;;
33644;SDS011;19986;48.190;16.366;2024-01-07T02:05:33;50.25;;;47.65;;
33644;SDS011;19986;48.190;16.366;2024-01-07T02:07:58;52.88;;;50.17;;
33644;SDS011;19986;48.190;16.366;2024-01-07T02:10:24;55.70;;;52.80;;
33644;SDS011;19986;48.190;16.366;2024-01-07T02:12:52;51.55;;;48.95;;
33644;SDS011;19986;48.190;16.366;2024-01-07T02:15:18;53.35;;;50.45;;
33644;SDS011;19986;48.190;16.366;2024-01-07T02:17:47;52.95;;;50.17;;
33644;SDS011;19986;48.190;16.366;2024-01-07T02:20:14;52.78;;;50.00;;
33644;SDS011;19986;48.190;16.366;2024-01-07T02:22:42;49.92;;;47.33;;
33644;SDS011;19986;48.190;16.366;2024-01-07T02:25:10;53.15;;;50.35;;
33644;SDS011;19986;48.190;16.366;2024-01-07T02:27:36;55.55;;;52.65;;
33644;SDS011;19986;48.190;16.366;2024-01-07T02:30:02;51.08;;;48.38;;
33644;SDS011;19986;48.190;16.366;2024-01-07T02:32:29;52.55;;;49.78;;
33644;SDS011;19986;48.190;16.366;2024-01-07T02:34:57;51.33;;;48.53;;
33644;SDS011;19986;48.190;16.366;2024-01-07T02:37:23;53.50;;;50.70;;
33644;SDS011;19986;48.190;16.366;2024-01-07T02:39:50;54.38;;;51.58;;
33644;SDS011;19986;48.190;16.366;2024-01-07T02:42:16;52.88;;;50.13;;
33644;SDS011;19986;48.190;16.366;2024-01-07T02:44:42;53.97;;;51.13;;
33644;SDS011;19986;48.190;16.366;2024-01-07T02:47:09;52.53;;;49.72;;
33644;SDS011;19986;48.190;16.366;2024-01-07T02:49:36;49.30;;;46.60;;
33644;SDS011;19986;48.190;16.366;2024-01-07T02:52:02;55.50;;;52.55;;
33644;SDS011;19986;48.190;16.366;2024-01-07T02:54:31;54.35;;;51.45;;
33644;SDS011;19986;48.190;16.366;2024-01-07T02:56:58;50.70;;;48.00;;
33644;SDS011;19986;48.190;16.366;2024-01-07T02:59:32;52.72;;;49.80;;
33644;SDS011;19986;48.190;16.366;2024-01-07T03:01:59;51.97;;;49.20;;
33644;SDS011;19986;48.190;16.366;2024-01-07T03:04:26;52.35;;;49.55;;
33644;SDS011;19986;48.190;16.366;2024-01-07T03:06:53;51.53;;;48.72;;
33644;SDS011;19986;48.190;16.366;2024-01-07T03:09:25;54.20;;;51.20;;
33644;SDS011;19986;48.190;16.366;2024-01-07T03:11:53;53.05;;;50.17;;
33644;SDS011;19986;48.190;16.366;2024-01-07T03:14:20;52.85;;;50.00;;
33644;SDS011;19986;48.190;16.366;2024-01-07T03:16:49;54.63;;;51.72;;
33644;SDS011;19986;48.190;16.366;2024-01-07T03:19:16;52.45;;;49.70;;
33644;SDS011;19986;48.190;16.366;2024-01-07T03:21:42;54.17;;;51.38;;
33644;SDS011;19986;48.190;16.366;2024-01-07T03:24:08;50.28;;;47.58;;
33644;SDS011;19986;48.190;16.366;2024-01-07T03:26:35;53.42;;;50.63;;
33644;SDS011;19986;48.190;16.366;2024-01-07T03:29:01;53.20;;;50.25;;
33644;SDS011;19986;48.190;16.366;2024-01-07T03:31:28;51.08;;;48.30;;
33644;SDS011;19986;48.190;16.366;2024-01-07T03:33:56;52.55;;;49.75;;
33644;SDS011;19986;48.190;16.366;2024-01-07T03:36:22;52.72;;;49.83;;
33644;SDS011;19986;48.190;16.366;2024-01-07T03:38:51;52.83;;;50.03;;
33644;SDS011;19986;48.190;16.366;2024-01-07T03:41:18;51.88;;;49.08;;
33644;SDS011;19986;48.190;16.366;2024-01-07T03:43:48;53.30;;;50.42;;
33644;SDS011;19986;48.190;16.366;2024-01-07T03:46:15;53.03;;;50.08;;
33644;SDS011;19986;48.190;16.366;2024-01-07T03:48:41;53.30;;;50.35;;
33644;SDS011;19986;48.190;16.366;2024-01-07T03:51:08;53.85;;;50.85;;
33644;SDS011;19986;48.190;16.366;2024-01-07T03:53:35;55.75;;;52.55;;
33644;SDS011;19986;48.190;16.366;2024-01-07T03:56:01;52.35;;;49.22;;
33644;SDS011;19986;48.190;16.366;2024-01-07T03:58:29;53.80;;;50.80;;
33644;SDS011;19986;48.190;16.366;2024-01-07T04:00:55;54.67;;;51.67;;
33644;SDS011;19986;48.190;16.366;2024-01-07T04:03:21;54.35;;;51.35;;
33644;SDS011;19986;48.190;16.366;2024-01-07T04:05:47;54.47;;;51.38;;
33644;SDS011;19986;48.190;16.366;2024-01-07T04:08:13;56.47;;;53.28;;
33644;SDS011;19986;48.190;16.366;2024-01-07T04:10:41;56.78;;;53.53;;
33644;SDS011;19986;48.190;16.366;2024-01-07T04:13:07;52.47;;;49.47;;
33644;SDS011;19986;48.190;16.366;2024-01-07T04:15:34;55.67;;;52.67;;
33644;SDS011;19986;48.190;16.366;2024-01-07T04:18:03;53.05;;;50.15;;
33644;SDS011;19986;48.190;16.366;2024-01-07T04:20:29;56.25;;;53.05;;
33644;SDS011;19986;48.190;16.366;2024-01-07T04:22:56;54.45;;;51.45;;
33644;SDS011;19986;48.190;16.366;2024-01-07T04:25:23;55.40;;;52.35;;
33644;SDS011;19986;48.190;16.366;2024-01-07T04:27:51;57.35;;;54.05;;
33644;SDS011;19986;48.190;16.366;2024-01-07T04:30:18;55.67;;;52.50;;
33644;SDS011;19986;48.190;16.366;2024-01-07T04:32:44;54.35;;;51.13;;
33644;SDS011;19986;48.190;16.366;2024-01-07T04:35:10;54.63;;;51.58;;
33644;SDS011;19986;48.190;16.366;2024-01-07T04:37:37;56.47;;;53.20;;
33644;SDS011;19986;48.190;16.366;2024-01-07T04:40:03;54.60;;;51.60;;
33644;SDS011;19986;48.190;16.366;2024-01-07T04:42:29;57.25;;;54.05;;
33644;SDS011;19986;48.190;16.366;2024-01-07T04:44:55;54.03;;;51.05;;
33644;SDS011;19986;48.190;16.366;2024-01-07T04:50:07;54.42;;;51.42;;
33644;SDS011;19986;48.190;16.366;2024-01-07T04:52:48;56.35;;;53.17;;
33644;SDS011;19986;48.190;16.366;2024-01-07T04:55:14;55.63;;;52.53;;
33644;SDS011;19986;48.190;16.366;2024-01-07T04:57:40;53.85;;;50.85;;
33644;SDS011;19986;48.190;16.366;2024-01-07T05:00:06;53.97;;;50.90;;
33644;SDS011;19986;48.190;16.366;2024-01-07T05:02:33;54.03;;;51.00;;
33644;SDS011;19986;48.190;16.366;2024-01-07T05:05:00;54.47;;;51.42;;
33644;SDS011;19986;48.190;16.366;2024-01-07T05:07:26;54.38;;;51.38;;
33644;SDS011;19986;48.190;16.366;2024-01-07T05:09:54;56.55;;;53.35;;
33644;SDS011;19986;48.190;16.366;2024-01-07T05:12:21;57.20;;;54.00;;
33644;SDS011;19986;48.190;16.366;2024-01-07T05:14:47;56.83;;;53.70;;
33644;SDS011;19986;48.190;16.366;2024-01-07T05:17:13;54.97;;;51.88;;
33644;SDS011;19986;48.190;16.366;2024-01-07T05:19:42;54.38;;;51.35;;
33644;SDS011;19986;48.190;16.366;2024-01-07T05:22:07;55.35;;;52.25;;
33644;SDS011;19986;48.190;16.366;2024-01-07T05:24:33;55.85;;;52.85;;
33644;SDS011;19986;48.190;16.366;2024-01-07T05:27:03;55.55;;;52.45;;
33644;SDS011;19986;48.190;16.366;2024-01-07T05:29:28;54.15;;;51.03;;
33644;SDS011;19986;48.190;16.366;2024-01-07T05:31:54;55.75;;;52.65;;
33644;SDS011;19986;48.190;16.366;2024-01-07T05:34:21;56.38;;;53.17;;
33644;SDS011;19986;48.190;16.366;2024-01-07T05:36:47;56.83;;;53.63;;
33644;SDS011;19986;48.190;16.366;2024-01-07T05:39:13;55.10;;;52.00;;
33644;SDS011;19986;48.190;16.366;2024-01-07T05:41:40;54.58;;;51.58;;
33644;SDS011;19986;48.190;16.366;2024-01-07T05:44:06;55.25;;;52.25;;
33644;SDS011;19986;48.190;16.366;2024-01-07T05:46:33;55.25;;;52.15;;
33644;SDS011;19986;48.190;16.366;2024-01-07T05:48:59;53.47;;;50.40;;
33644;SDS011;19986;48.190;16.366;2024-01-07T05:51:25;54.63;;;51.63;;
33644;SDS011;19986;48.190;16.366;2024-01-07T05:53:52;53.40;;;50.50;;
33644;SDS011;19986;48.190;16.366;2024-01-07T05:56:18;57.03;;;53.92;;
33644;SDS011;19986;48.190;16.366;2024-01-07T05:58:44;54.45;;;51.45;;
33644;SDS011;19986;48.190;16.366;2024-01-07T06:01:11;54.78;;;51.67;;
33644;SDS011;19986;48.190;16.366;2024-01-07T06:03:44;54.13;;;51.13;;
33644;SDS011;19986;48.190;16.366;2024-01-07T06:06:12;55.40;;;52.20;;
33644;SDS011;19986;48.190;16.366;2024-01-07T06:08:38;55.47;;;52.38;;
33644;SDS011;19986;48.190;16.366;2024-01-07T06:11:04;56.58;;;53.47;;
33644;SDS011;19986;48.190;16.366;2024-01-07T06:13:31;54.55;;;51.65;;
33644;SDS011;19986;48.190;16.366;2024-01-07T06:15:57;54.10;;;51.20;;
33644;SDS011;19986;48.190;16.366;2024-01-07T06:18:23;52.90;;;49.80;;
33644;SDS011;19986;48.190;16.366;2024-01-07T06:20:49;53.78;;;50.67;;
33644;SDS011;19986;48.190;16.366;2024-01-07T06:23:15;54.50;;;51.40;;
33644;SDS011;19986;48.190;16.366;2024-01-07T06:25:41;55.53;;;52.58;;
33644;SDS011;19986;48.190;16.366;2024-01-07T06:28:07;54.42;;;51.33;;
33644;SDS011;19986;48.190;16.366;2024-01-07T06:30:35;56.03;;;52.58;;
33644;SDS011;19986;48.190;16.366;2024-01-07T06:33:16;54.38;;;51.28;;
33644;SDS011;19986;48.190;16.366;2024-01-07T06:35:42;54.67;;;51.58;;
33644;SDS011;19986;48.190;16.366;2024-01-07T06:38:08;53.85;;;50.88;;
33644;SDS011;19986;48.190;16.366;2024-01-07T06:40:34;54.42;;;51.42;;
33644;SDS011;19986;48.190;16.366;2024-01-07T06:43:00;53.10;;;50.20;;
33644;SDS011;19986;48.190;16.366;2024-01-07T06:45:25;52.97;;;49.90;;
33644;SDS011;19986;48.190;16.366;2024-01-07T06:47:51;53.28;;;50.35;;
33644;SDS011;19986;48.190;16.366;2024-01-07T06:50:18;52.47;;;49.47;;
33644;SDS011;19986;48.190;16.366;2024-01-07T06:52:45;54.13;;;51.13;;
33644;SDS011;19986;48.190;16.366;2024-01-07T06:55:11;55.63;;;52.53;;
33644;SDS011;19986;48.190;16.366;2024-01-07T06:57:39;55.17;;;52.17;;
33644;SDS011;19986;48.190;16.366;2024-01-07T07:00:05;55.70;;;52.67;;
33644;SDS011;19986;48.190;16.366;2024-01-07T07:02:31;57.20;;;54.17;;
33644;SDS011;19986;48.190;16.366;2024-01-07T07:04:57;54.65;;;51.60;;
33644;SDS011;19986;48.190;16.366;2024-01-07T07:07:23;53.70;;;50.58;;
33644;SDS011;19986;48.190;16.366;2024-01-07T07:09:49;51.70;;;48.60;;
33644;SDS011;19986;48.190;16.366;2024-01-07T07:12:15;54.78;;;51.65;;
33644;SDS011;19986;48.190;16.366;2024-01-07T07:14:42;55.28;;;52.17;;
33644;SDS011;19986;48.190;16.366;2024-01-07T07:17:08;54.17;;;51.15;;
33644;SDS011;19986;48.190;16.366;2024-01-07T07:19:34;55.05;;;51.90;;
33644;SDS011;19986;48.190;16.366;2024-01-07T07:22:00;54.00;;;50.90;;
33644;SDS011;19986;48.190;16.366;2024-01-07T07:24:25;52.70;;;49.47;;
33644;SDS011;19986;48.190;16.366;2024-01-07T07:26:51;55.50;;;52.30;;
33644;SDS011;19986;48.190;16.366;2024-01-07T07:29:17;52.45;;;49.38;;
33644;SDS011;19986;48.190;16.366;2024-01-07T07:31:43;56.95;;;53.70;;
33644;SDS011;19986;48.190;16.366;2024-01-07T07:34:09;52.35;;;49.35;;
33644;SDS011;19986;48.190;16.366;2024-01-07T07:36:36;55.45;;;52.35;;
33644;SDS011;19986;48.190;16.366;2024-01-07T07:39:02;54.53;;;51.33;;
33644;SDS011;19986;48.190;16.366;2024-01-07T07:41:27;56.33;;;53.03;;
33644;SDS011;19986;48.190;16.366;2024-01-07T07:43:54;56.67;;;53.47;;
33644;SDS011;19986;48.190;16.366;2024-01-07T07:46:20;55.95;;;52.75;;
33644;SDS011;19986;48.190;16.366;2024-01-07T07:48:45;55.30;;;52.00;;
33644;SDS011;19986;48.190;16.366;2024-01-07T07:51:13;56.72;;;53.38;;
33644;SDS011;19986;48.190;16.366;2024-01-07T07:53:42;56.45;;;53.15;;
33644;SDS011;19986;48.190;16.366;2024-01-07T07:56:08;56.70;;;53.50;;
33644;SDS011;19986;48.190;16.366;2024-01-07T07:58:34;54.60;;;51.47;;
33644;SDS011;19986;48.190;16.366;2024-01-07T08:01:00;56.65;;;53.42;;
33644;SDS011;19986;48.190;16.366;2024-01-07T08:03:26;53.20;;;50.10;;
33644;SDS011;19986;48.190;16.366;2024-01-07T08:05:54;56.42;;;53.22;;
33644;SDS011;19986;48.190;16.366;2024-01-07T08:08:20;54.05;;;50.95;;
33644;SDS011;19986;48.190;16.366;2024-01-07T08:10:46;54.08;;;50.78;;
33644;SDS011;19986;48.190;16.366;2024-01-07T08:13:12;55.50;;;52.33;;
33644;SDS011;19986;48.190;16.366;2024-01-07T08:15:39;53.13;;;50.13;;
33644;SDS011;19986;48.190;16.366;2024-01-07T08:18:06;55.75;;;52.22;;
33644;SDS011;19986;48.190;16.366;2024-01-07T08:20:32;54.92;;;51.75;;
33644;SDS011;19986;48.190;16.366;2024-01-07T08:22:58;55.72;;;52.55;;
33644;SDS011;19986;48.190;16.366;2024-01-07T08:25:23;55.85;;;52.65;;
33644;SDS011;19986;48.190;16.366;2024-01-07T08:27:49;56.35;;;53.00;;
33644;SDS011;19986;48.190;16.366;2024-01-07T08:30:16;54.83;;;51.63;;
33644;SDS011;19986;48.190;16.366;2024-01-07T08:32:41;59.00;;;55.63;;
33644;SDS011;19986;48.190;16.366;2024-01-07T08:35:08;57.55;;;54.15;;
33644;SDS011;19986;48.190;16.366;2024-01-07T08:37:35;55.45;;;51.95;;
33644;SDS011;19986;48.190;16.366;2024-01-07T08:40:00;56.88;;;53.67;;
33644;SDS011;19986;48.190;16.366;2024-01-07T08:42:27;56.60;;;53.50;;
33644;SDS011;19986;48.190;16.366;2024-01-07T08:44:55;56.10;;;52.80;;
33644;SDS011;19986;48.190;16.366;2024-01-07T08:47:21;55.53;;;52.53;;
33644;SDS011;19986;48.190;16.366;2024-01-07T08:49:47;55.72;;;52.53;;
33644;SDS011;19986;48.190;16.366;2024-01-07T08:52:13;58.75;;;55.40;;
33644;SDS011;19986;48.190;16.366;2024-01-07T08:54:39;55.60;;;52.50;;
33644;SDS011;19986;48.190;16.366;2024-01-07T08:57:05;56.38;;;53.25;;
33644;SDS011;19986;48.190;16.366;2024-01-07T08:59:31;55.10;;;52.00;;
33644;SDS011;19986;48.190;16.366;2024-01-07T09:01:57;50.95;;;48.10;;
33644;SDS011;19986;48.190;16.366;2024-01-07T09:04:22;57.08;;;53.65;;
33644;SDS011;19986;48.190;16.366;2024-01-07T09:06:51;54.42;;;51.38;;
33644;SDS011;19986;48.190;16.366;2024-01-07T09:09:18;54.78;;;51.58;;
33644;SDS011;19986;48.190;16.366;2024-01-07T09:11:43;56.47;;;53.17;;
33644;SDS011;19986;48.190;16.366;2024-01-07T09:14:11;56.05;;;52.80;;
33644;SDS011;19986;48.190;16.366;2024-01-07T09:16:37;57.83;;;54.53;;
33644;SDS011;19986;48.190;16.366;2024-01-07T09:19:03;57.70;;;54.30;;
33644;SDS011;19986;48.190;16.366;2024-01-07T09:21:29;57.90;;;54.50;;
33644;SDS011;19986;48.190;16.366;2024-01-07T09:23:55;57.55;;;54.22;;
33644;SDS011;19986;48.190;16.366;2024-01-07T09:26:21;57.45;;;54.05;;
33644;SDS011;19986;48.190;16.366;2024-01-07T09:28:48;53.85;;;50.85;;
33644;SDS011;19986;48.190;16.366;2024-01-07T09:31:17;56.05;;;52.88;;
33644;SDS011;19986;48.190;16.366;2024-01-07T09:33:43;53.90;;;50.90;;
33644;SDS011;19986;48.190;16.366;2024-01-07T09:36:09;57.45;;;54.15;;
33644;SDS011;19986;48.190;16.366;2024-01-07T09:38:35;56.65;;;53.45;;
33644;SDS011;19986;48.190;16.366;2024-01-07T09:41:01;57.72;;;54.25;;
33644;SDS011;19986;48.190;16.366;2024-01-07T09:43:28;56.85;;;53.58;;
33644;SDS011;19986;48.190;16.366;2024-01-07T09:45:54;59.08;;;55.58;;
33644;SDS011;19986;48.190;16.366;2024-01-07T09:48:22;56.35;;;53.05;;
33644;SDS011;19986;48.190;16.366;2024-01-07T09:50:49;55.30;;;52.20;;
33644;SDS011;19986;48.190;16.366;2024-01-07T09:53:15;56.47;;;53.20;;
33644;SDS011;19986;48.190;16.366;2024-01-07T09:55:48;57.95;;;54.65;;
33644;SDS011;19986;48.190;16.366;2024-01-07T09:58:22;58.25;;;54.95;;
33644;SDS011;19986;48.190;16.366;2024-01-07T10:00:48;57.65;;;54.40;;
33644;SDS011;19986;48.190;16.366;2024-01-07T10:03:14;59.45;;;56.08;;
33644;SDS011;19986;48.190;16.366;2024-01-07T10:05:40;60.03;;;56.42;;
33644;SDS011;19986;48.190;16.366;2024-01-07T10:08:06;54.22;;;51.00;;
33644;SDS011;19986;48.190;16.366;2024-01-07T10:10:35;56.55;;;53.33;;
33644;SDS011;19986;48.190;16.366;2024-01-07T10:13:04;56.15;;;52.95;;
33644;SDS011;19986;48.190;16.366;2024-01-07T10:15:31;54.88;;;51.80;;
33644;SDS011;19986;48.190;16.366;2024-01-07T10:18:02;55.95;;;52.75;;
33644;SDS011;19986;48.190;16.366;2024-01-07T10:20:31;52.40;;;49.50;;
33644;SDS011;19986;48.190;16.366;2024-01-07T10:23:01;54.35;;;51.20;;
33644;SDS011;19986;48.190;16.366;2024-01-07T10:25:32;57.72;;;54.40;;
33644;SDS011;19986;48.190;16.366;2024-01-07T10:28:01;52.92;;;49.97;;
33644;SDS011;19986;48.190;16.366;2024-01-07T10:30:30;55.45;;;52.25;;
33644;SDS011;19986;48.190;16.366;2024-01-07T10:32:57;54.47;;;51.53;;
33644;SDS011;19986;48.190;16.366;2024-01-07T10:35:27;56.72;;;53.42;;
33644;SDS011;19986;48.190;16.366;2024-01-07T10:38:02;55.92;;;52.92;;
33644;SDS011;19986;48.190;16.366;2024-01-07T10:40:29;54.03;;;51.05;;
33644;SDS011;19986;48.190;16.366;2024-01-07T10:42:56;58.00;;;54.38;;
33644;SDS011;19986;48.190;16.366;2024-01-07T10:45:23;53.92;;;50.80;;
33644;SDS011;19986;48.190;16.366;2024-01-07T10:47:50;54.58;;;51.55;;
33644;SDS011;19986;48.190;16.366;2024-01-07T10:50:25;57.40;;;54.10;;
33644;SDS011;19986;48.190;16.366;2024-01-07T10:52:58;55.35;;;52.13;;
33644;SDS011;19986;48.190;16.366;2024-01-07T10:55:30;58.35;;;54.95;;
33644;SDS011;19986;48.190;16.366;2024-01-07T10:58:01;56.38;;;53.08;;
33644;SDS011;19986;48.190;16.366;2024-01-07T11:00:30;57.80;;;54.50;;
33644;SDS011;19986;48.190;16.366;2024-01-07T11:06:07;54.97;;;51.78;;
33644;SDS011;19986;48.190;16.366;2024-01-07T11:08:45;57.08;;;53.88;;
33644;SDS011;19986;48.190;16.366;2024-01-07T11:11:46;66.10;;;60.50;;
33644;SDS011;19986;48.190;16.366;2024-01-07T11:17:08;57.17;;;53.88;;
33644;SDS011;19986;48.190;16.366;2024-01-07T11:19:35;59.15;;;55.75;;
33644;SDS011;19986;48.190;16.366;2024-01-07T11:24:59;57.30;;;54.10;;
33644;SDS011;19986;48.190;16.366;2024-01-07T11:27:29;58.17;;;54.80;;
33644;SDS011;19986;48.190;16.366;2024-01-07T11:30:02;55.60;;;52.30;;
33644;SDS011;19986;48.190;16.366;2024-01-07T11:32:30;57.30;;;53.92;;
33644;SDS011;19986;48.190;16.366;2024-01-07T11:35:00;55.58;;;52.38;;
33644;SDS011;19986;48.190;16.366;2024-01-07T11:37:32;56.90;;;53.40;;
33644;SDS011;19986;48.190;16.366;2024-01-07T11:40:02;57.35;;;53.92;;
33644;SDS011;19986;48.190;16.366;2024-01-07T11:42:29;56.67;;;53.42;;
33644;SDS011;19986;48.190;16.366;2024-01-07T11:44:57;57.90;;;54.35;;
33644;SDS011;19986;48.190;16.366;2024-01-07T11:47:24;57.33;;;54.00;;
33644;SDS011;19986;48.190;16.366;2024-01-07T11:49:53;58.40;;;54.67;;
33644;SDS011;19986;48.190;16.366;2024-01-07T11:52:20;56.70;;;53.40;;
33644;SDS011;19986;48.190;16.366;2024-01-07T11:54:46;59.40;;;55.80;;
33644;SDS011;19986;48.190;16.366;2024-01-07T11:57:13;57.97;;;54.50;;
33644;SDS011;19986;48.190;16.366;2024-01-07T11:59:54;58.15;;;54.75;;
33644;SDS011;19986;48.190;16.366;2024-01-07T12:02:20;60.00;;;56.40;;
33644;SDS011;19986;48.190;16.366;2024-01-07T12:04:46;58.08;;;54.58;;
33644;SDS011;19986;48.190;16.366;2024-01-07T12:07:12;57.83;;;54.33;;
33644;SDS011;19986;48.190;16.366;2024-01-07T12:09:45;55.20;;;51.92;;
33644;SDS011;19986;48.190;16.366;2024-01-07T12:12:12;58.15;;;54.65;;
33644;SDS011;19986;48.190;16.366;2024-01-07T12:14:38;55.80;;;52.45;;
33644;SDS011;19986;48.190;16.366;2024-01-07T12:17:05;57.47;;;54.00;;
33644;SDS011;19986;48.190;16.366;2024-01-07T12:19:33;56.40;;;52.97;;
33644;SDS011;19986;48.190;16.366;2024-01-07T12:22:03;57.22;;;53.83;;
33644;SDS011;19986;48.190;16.366;2024-01-07T12:24:31;55.95;;;52.65;;
33644;SDS011;19986;48.190;16.366;2024-01-07T12:27:03;58.15;;;54.78;;
33644;SDS011;19986;48.190;16.366;2024-01-07T12:29:30;57.40;;;53.92;;
33644;SDS011;19986;48.190;16.366;2024-01-07T12:31:56;57.85;;;54.35;;
33644;SDS011;19986;48.190;16.366;2024-01-07T12:34:22;54.70;;;51.40;;
33644;SDS011;19986;48.190;16.366;2024-01-07T12:36:49;55.22;;;51.92;;
33644;SDS011;19986;48.190;16.366;2024-01-07T12:39:15;56.95;;;53.67;;
33644;SDS011;19986;48.190;16.366;2024-01-07T12:41:40;58.97;;;55.38;;
33644;SDS011;19986;48.190;16.366;2024-01-07T12:44:21;57.60;;;54.17;;
33644;SDS011;19986;48.190;16.366;2024-01-07T12:46:53;57.60;;;54.30;;
33644;SDS011;19986;48.190;16.366;2024-01-07T12:49:19;59.20;;;55.55;;
33644;SDS011;19986;48.190;16.366;2024-01-07T12:51:49;57.03;;;53.60;;
33644;SDS011;19986;48.190;16.366;2024-01-07T12:54:16;58.33;;;54.83;;
33644;SDS011;19986;48.190;16.366;2024-01-07T12:56:42;57.88;;;54.15;;
33644;SDS011;19986;48.190;16.366;2024-01-07T12:59:08;59.50;;;55.90;;
33644;SDS011;19986;48.190;16.366;2024-01-07T13:01:34;60.60;;;56.85;;
33644;SDS011;19986;48.190;16.366;2024-01-07T13:04:18;58.88;;;55.28;;
33644;SDS011;19986;48.190;16.366;2024-01-07T13:06:44;58.78;;;55.08;;
33644;SDS011;19986;48.190;16.366;2024-01-07T13:09:11;59.78;;;56.17;;
33644;SDS011;19986;48.190;16.366;2024-01-07T13:11:39;59.00;;;55.50;;
33644;SDS011;19986;48.190;16.366;2024-01-07T13:14:08;59.45;;;55.85;;
33644;SDS011;19986;48.190;16.366;2024-01-07T13:16:34;58.35;;;54.75;;
33644;SDS011;19986;48.190;16.366;2024-01-07T13:19:00;60.08;;;56.35;;
33644;SDS011;19986;48.190;16.366;2024-01-07T13:21:26;57.25;;;53.85;;
33644;SDS011;19986;48.190;16.366;2024-01-07T13:23:53;58.97;;;55.38;;
33644;SDS011;19986;48.190;16.366;2024-01-07T13:26:22;56.65;;;53.22;;
33644;SDS011;19986;48.190;16.366;2024-01-07T13:28:48;57.55;;;54.05;;
33644;SDS011;19986;48.190;16.366;2024-01-07T13:31:14;59.15;;;55.70;;
33644;SDS011;19986;48.190;16.366;2024-01-07T13:33:42;60.75;;;57.28;;
33644;SDS011;19986;48.190;16.366;2024-01-07T13:36:13;57.72;;;54.22;;
33644;SDS011;19986;48.190;16.366;2024-01-07T13:38:38;56.92;;;53.47;;
33644;SDS011;19986;48.190;16.366;2024-01-07T13:41:11;59.20;;;55.65;;
33644;SDS011;19986;48.190;16.366;2024-01-07T13:43:39;57.05;;;53.63;;
33644;SDS011;19986;48.190;16.366;2024-01-07T13:46:09;59.90;;;56.33;;
33644;SDS011;19986;48.190;16.366;2024-01-07T13:48:35;57.60;;;54.17;;
33644;SDS011;19986;48.190;16.366;2024-01-07T13:51:03;57.25;;;53.70;;
33644;SDS011;19986;48.190;16.366;2024-01-07T13:53:35;60.17;;;56.47;;
33644;SDS011;19986;48.190;16.366;2024-01-07T13:56:04;57.95;;;54.45;;
33644;SDS011;19986;48.190;16.366;2024-01-07T13:58:32;57.75;;;54.15;;
33644;SDS011;19986;48.190;16.366;2024-01-07T14:00:58;58.60;;;54.90;;
33644;SDS011;19986;48.190;16.366;2024-01-07T14:03:25;58.42;;;54.90;;
33644;SDS011;19986;48.190;16.366;2024-01-07T14:06:06;57.97;;;54.38;;
33644;SDS011;19986;48.190;16.366;2024-01-07T14:08:32;58.00;;;54.60;;
33644;SDS011;19986;48.190;16.366;2024-01-07T14:11:00;57.30;;;53.88;;
33644;SDS011;19986;48.190;16.366;2024-01-07T14:13:29;59.28;;;55.78;;
33644;SDS011;19986;48.190;16.366;2024-01-07T14:15:56;59.22;;;55.72;;
33644;SDS011;19986;48.190;16.366;2024-01-07T14:18:22;63.90;;;59.60;;
33644;SDS011;19986;48.190;16.366;2024-01-07T14:20:49;56.75;;;53.45;;